sensor_id;sensor_type;location;lat;lon;timestamp;temperature;humidity
22491;DHT22;11412;50.802;4.350;2022-12-07T00:01:15;5.80;99.90
22491;DHT22;11412;50.802;4.350;2022-12-07T00:03:43;5.60;99.90
22491;DHT22;11412;50.802;4.350;2022-12-07T00:06:11;5.50;99.90
22491;DHT22;11412;50.802;4.350;2022-12-07T00:08:37;5.40;99.90
22491;DHT22;11412;50.802;4.350;2022-12-07T00:11:22;5.40;99.90
22491;DHT22;11412;50.802;4.350;2022-12-07T00:13:55;5.40;99.90
22491;DHT22;11412;50.802;4.350;2022-12-07T00:16:24;5.30;99.90
22491;DHT22;11412;50.802;4.350;2022-12-07T00:18:50;5.30;99.90
22491;DHT22;11412;50.802;4.350;2022-12-07T00:23:47;5.30;99.90
22491;DHT22;11412;50.802;4.350;2022-12-07T00:28:51;5.30;99.90
22491;DHT22;11412;50.802;4.350;2022-12-07T00:31:19;5.30;99.90
22491;DHT22;11412;50.802;4.350;2022-12-07T00:33:46;5.40;99.90
22491;DHT22;11412;50.802;4.350;2022-12-07T00:36:14;5.60;99.90
22491;DHT22;11412;50.802;4.350;2022-12-07T00:38:40;5.60;99.90
22491;DHT22;11412;50.802;4.350;2022-12-07T00:41:11;5.60;99.90
22491;DHT22;11412;50.802;4.350;2022-12-07T00:43:37;5.40;99.90
22491;DHT22;11412;50.802;4.350;2022-12-07T00:46:02;5.20;99.90
22491;DHT22;11412;50.802;4.350;2022-12-07T00:48:28;5.10;99.90
22491;DHT22;11412;50.802;4.350;2022-12-07T00:50:54;5.10;99.90
22491;DHT22;11412;50.802;4.350;2022-12-07T00:53:20;5.10;99.90
22491;DHT22;11412;50.802;4.350;2022-12-07T00:55:46;5.00;99.90
22491;DHT22;11412;50.802;4.350;2022-12-07T00:58:11;4.90;99.90
22491;DHT22;11412;50.802;4.350;2022-12-07T01:00:38;4.90;99.90
22491;DHT22;11412;50.802;4.350;2022-12-07T01:03:09;4.90;99.90
22491;DHT22;11412;50.802;4.350;2022-12-07T01:05:35;4.90;99.90
22491;DHT22;11412;50.802;4.350;2022-12-07T01:08:01;5.00;99.90
22491;DHT22;11412;50.802;4.350;2022-12-07T01:10:27;5.00;99.90
22491;DHT22;11412;50.802;4.350;2022-12-07T01:12:54;5.10;99.90
22491;DHT22;11412;50.802;4.350;2022-12-07T01:15:19;5.20;99.90
22491;DHT22;11412;50.802;4.350;2022-12-07T01:17:45;5.20;99.90
22491;DHT22;11412;50.802;4.350;2022-12-07T01:20:11;5.20;99.90
22491;DHT22;11412;50.802;4.350;2022-12-07T01:22:38;5.10;99.90
22491;DHT22;11412;50.802;4.350;2022-12-07T01:25:05;5.30;99.90
22491;DHT22;11412;50.802;4.350;2022-12-07T01:27:33;5.30;99.90
22491;DHT22;11412;50.802;4.350;2022-12-07T01:29:59;5.10;99.90
22491;DHT22;11412;50.802;4.350;2022-12-07T01:32:24;5.00;99.90
22491;DHT22;11412;50.802;4.350;2022-12-07T01:34:50;5.00;99.90
22491;DHT22;11412;50.802;4.350;2022-12-07T01:37:15;5.00;99.90
22491;DHT22;11412;50.802;4.350;2022-12-07T01:39:41;5.00;99.90
22491;DHT22;11412;50.802;4.350;2022-12-07T01:42:10;5.00;99.90
22491;DHT22;11412;50.802;4.350;2022-12-07T01:47:39;5.00;99.90
22491;DHT22;11412;50.802;4.350;2022-12-07T01:50:06;4.90;99.90
22491;DHT22;11412;50.802;4.350;2022-12-07T01:52:33;4.90;99.90
22491;DHT22;11412;50.802;4.350;2022-12-07T01:55:03;4.90;99.90
22491;DHT22;11412;50.802;4.350;2022-12-07T01:57:31;4.90;99.90
22491;DHT22;11412;50.802;4.350;2022-12-07T01:59:59;4.90;99.90
22491;DHT22;11412;50.802;4.350;2022-12-07T02:02:30;4.80;99.90
22491;DHT22;11412;50.802;4.350;2022-12-07T02:04:57;4.80;99.90
22491;DHT22;11412;50.802;4.350;2022-12-07T02:07:24;4.80;99.90
22491;DHT22;11412;50.802;4.350;2022-12-07T02:09:50;4.70;99.90
22491;DHT22;11412;50.802;4.350;2022-12-07T02:12:16;4.80;99.90
22491;DHT22;11412;50.802;4.350;2022-12-07T02:14:42;4.90;99.90
22491;DHT22;11412;50.802;4.350;2022-12-07T02:17:36;4.90;99.90
22491;DHT22;11412;50.802;4.350;2022-12-07T02:20:40;5.00;99.90
22491;DHT22;11412;50.802;4.350;2022-12-07T02:31:31;5.20;99.90
22491;DHT22;11412;50.802;4.350;2022-12-07T02:34:28;5.30;99.90
22491;DHT22;11412;50.802;4.350;2022-12-07T02:36:59;5.70;99.90
22491;DHT22;11412;50.802;4.350;2022-12-07T02:39:46;5.70;99.90
22491;DHT22;11412;50.802;4.350;2022-12-07T02:42:18;5.50;99.90
22491;DHT22;11412;50.802;4.350;2022-12-07T02:44:44;5.30;99.90
22491;DHT22;11412;50.802;4.350;2022-12-07T02:47:13;5.30;99.90
22491;DHT22;11412;50.802;4.350;2022-12-07T02:49:41;5.40;99.90
22491;DHT22;11412;50.802;4.350;2022-12-07T02:52:07;5.40;99.90
22491;DHT22;11412;50.802;4.350;2022-12-07T02:54:33;5.40;99.90
22491;DHT22;11412;50.802;4.350;2022-12-07T02:57:25;5.50;99.90
22491;DHT22;11412;50.802;4.350;2022-12-07T03:00:07;5.40;99.90
22491;DHT22;11412;50.802;4.350;2022-12-07T03:13:31;5.00;99.90
22491;DHT22;11412;50.802;4.350;2022-12-07T03:16:06;5.00;99.90
22491;DHT22;11412;50.802;4.350;2022-12-07T03:18:38;5.00;99.90
22491;DHT22;11412;50.802;4.350;2022-12-07T03:21:10;4.80;99.90
22491;DHT22;11412;50.802;4.350;2022-12-07T03:23:39;4.80;99.90
22491;DHT22;11412;50.802;4.350;2022-12-07T03:26:08;4.70;99.90
22491;DHT22;11412;50.802;4.350;2022-12-07T03:28:41;4.70;99.90
22491;DHT22;11412;50.802;4.350;2022-12-07T03:31:18;4.60;99.90
22491;DHT22;11412;50.802;4.350;2022-12-07T03:36:34;4.50;99.90
22491;DHT22;11412;50.802;4.350;2022-12-07T03:39:29;4.50;99.90
22491;DHT22;11412;50.802;4.350;2022-12-07T03:41:53;4.50;99.90
22491;DHT22;11412;50.802;4.350;2022-12-07T03:44:20;4.50;99.90
22491;DHT22;11412;50.802;4.350;2022-12-07T03:47:03;4.40;99.90
22491;DHT22;11412;50.802;4.350;2022-12-07T03:49:55;4.50;99.90
22491;DHT22;11412;50.802;4.350;2022-12-07T03:52:28;4.50;99.90
22491;DHT22;11412;50.802;4.350;2022-12-07T03:55:22;4.60;99.90
22491;DHT22;11412;50.802;4.350;2022-12-07T03:57:51;4.90;99.90
22491;DHT22;11412;50.802;4.350;2022-12-07T04:00:19;4.80;99.90
22491;DHT22;11412;50.802;4.350;2022-12-07T04:02:44;4.70;99.90
22491;DHT22;11412;50.802;4.350;2022-12-07T04:05:10;4.70;99.90
22491;DHT22;11412;50.802;4.350;2022-12-07T04:07:36;4.50;99.90
22491;DHT22;11412;50.802;4.350;2022-12-07T04:10:02;4.40;99.90
22491;DHT22;11412;50.802;4.350;2022-12-07T04:12:28;4.30;99.90
22491;DHT22;11412;50.802;4.350;2022-12-07T04:14:53;4.20;99.90
22491;DHT22;11412;50.802;4.350;2022-12-07T04:17:19;4.20;99.90
22491;DHT22;11412;50.802;4.350;2022-12-07T04:19:45;4.10;99.90
22491;DHT22;11412;50.802;4.350;2022-12-07T04:22:10;4.10;99.90
22491;DHT22;11412;50.802;4.350;2022-12-07T04:24:36;4.10;99.90
22491;DHT22;11412;50.802;4.350;2022-12-07T04:27:02;4.10;99.90
22491;DHT22;11412;50.802;4.350;2022-12-07T04:29:28;4.10;99.90
22491;DHT22;11412;50.802;4.350;2022-12-07T04:31:53;4.00;99.90
22491;DHT22;11412;50.802;4.350;2022-12-07T04:34:20;4.00;99.90
22491;DHT22;11412;50.802;4.350;2022-12-07T04:36:46;4.00;99.90
22491;DHT22;11412;50.802;4.350;2022-12-07T04:39:21;4.00;99.90
22491;DHT22;11412;50.802;4.350;2022-12-07T04:41:47;4.10;99.90
22491;DHT22;11412;50.802;4.350;2022-12-07T04:44:14;4.00;99.90
22491;DHT22;11412;50.802;4.350;2022-12-07T04:46:40;4.00;99.90
22491;DHT22;11412;50.802;4.350;2022-12-07T04:49:06;4.10;99.90
22491;DHT22;11412;50.802;4.350;2022-12-07T04:51:32;4.10;99.90
22491;DHT22;11412;50.802;4.350;2022-12-07T04:53:58;4.10;99.90
22491;DHT22;11412;50.802;4.350;2022-12-07T04:56:24;4.10;99.90
22491;DHT22;11412;50.802;4.350;2022-12-07T04:58:52;4.20;99.90
22491;DHT22;11412;50.802;4.350;2022-12-07T05:01:19;4.30;99.90
22491;DHT22;11412;50.802;4.350;2022-12-07T05:03:44;4.40;99.90
22491;DHT22;11412;50.802;4.350;2022-12-07T05:06:11;4.40;99.90
22491;DHT22;11412;50.802;4.350;2022-12-07T05:08:37;4.60;99.90
22491;DHT22;11412;50.802;4.350;2022-12-07T05:11:05;4.70;99.90
22491;DHT22;11412;50.802;4.350;2022-12-07T05:13:31;4.60;99.90
22491;DHT22;11412;50.802;4.350;2022-12-07T05:15:57;4.60;99.90
22491;DHT22;11412;50.802;4.350;2022-12-07T05:18:23;4.60;99.90
22491;DHT22;11412;50.802;4.350;2022-12-07T05:20:49;4.60;99.90
22491;DHT22;11412;50.802;4.350;2022-12-07T05:23:16;4.60;99.90
22491;DHT22;11412;50.802;4.350;2022-12-07T05:25:42;4.50;99.90
22491;DHT22;11412;50.802;4.350;2022-12-07T05:28:08;4.50;99.90
22491;DHT22;11412;50.802;4.350;2022-12-07T05:30:33;4.50;99.90
22491;DHT22;11412;50.802;4.350;2022-12-07T05:32:59;4.40;99.90
22491;DHT22;11412;50.802;4.350;2022-12-07T05:35:25;4.40;99.90
22491;DHT22;11412;50.802;4.350;2022-12-07T05:37:50;4.40;99.90
22491;DHT22;11412;50.802;4.350;2022-12-07T05:40:16;4.40;99.90
22491;DHT22;11412;50.802;4.350;2022-12-07T05:42:42;4.40;99.90
22491;DHT22;11412;50.802;4.350;2022-12-07T05:45:09;4.50;99.90
22491;DHT22;11412;50.802;4.350;2022-12-07T05:47:35;4.50;99.90
22491;DHT22;11412;50.802;4.350;2022-12-07T05:50:01;4.70;99.90
22491;DHT22;11412;50.802;4.350;2022-12-07T05:52:27;4.60;99.90
22491;DHT22;11412;50.802;4.350;2022-12-07T05:54:52;4.60;99.90
22491;DHT22;11412;50.802;4.350;2022-12-07T05:57:18;4.60;99.90
22491;DHT22;11412;50.802;4.350;2022-12-07T05:59:44;4.60;99.90
22491;DHT22;11412;50.802;4.350;2022-12-07T06:02:12;4.50;99.90
22491;DHT22;11412;50.802;4.350;2022-12-07T06:04:44;4.50;99.90
22491;DHT22;11412;50.802;4.350;2022-12-07T06:07:12;4.40;99.90
22491;DHT22;11412;50.802;4.350;2022-12-07T06:09:38;4.50;99.90
22491;DHT22;11412;50.802;4.350;2022-12-07T06:12:04;4.40;99.90
22491;DHT22;11412;50.802;4.350;2022-12-07T06:14:48;4.40;99.90
22491;DHT22;11412;50.802;4.350;2022-12-07T06:17:15;4.40;99.90
22491;DHT22;11412;50.802;4.350;2022-12-07T06:19:41;4.50;99.90
22491;DHT22;11412;50.802;4.350;2022-12-07T06:22:07;4.50;99.90
22491;DHT22;11412;50.802;4.350;2022-12-07T06:24:34;4.50;99.90
22491;DHT22;11412;50.802;4.350;2022-12-07T06:27:00;4.50;99.90
22491;DHT22;11412;50.802;4.350;2022-12-07T06:29:26;4.50;99.90
22491;DHT22;11412;50.802;4.350;2022-12-07T06:31:51;4.40;99.90
22491;DHT22;11412;50.802;4.350;2022-12-07T06:34:19;4.30;99.90
22491;DHT22;11412;50.802;4.350;2022-12-07T06:36:46;4.30;99.90
22491;DHT22;11412;50.802;4.350;2022-12-07T06:39:17;4.40;99.90
22491;DHT22;11412;50.802;4.350;2022-12-07T06:41:42;4.60;99.90
22491;DHT22;11412;50.802;4.350;2022-12-07T06:44:08;4.60;99.90
22491;DHT22;11412;50.802;4.350;2022-12-07T06:46:34;4.50;99.90
22491;DHT22;11412;50.802;4.350;2022-12-07T06:49:01;4.50;99.90
22491;DHT22;11412;50.802;4.350;2022-12-07T06:51:27;4.40;99.90
22491;DHT22;11412;50.802;4.350;2022-12-07T06:53:52;4.50;99.90
22491;DHT22;11412;50.802;4.350;2022-12-07T06:56:18;4.50;99.90
22491;DHT22;11412;50.802;4.350;2022-12-07T06:58:44;4.40;99.90
22491;DHT22;11412;50.802;4.350;2022-12-07T07:01:11;4.40;99.90
22491;DHT22;11412;50.802;4.350;2022-12-07T07:03:37;4.40;99.90
22491;DHT22;11412;50.802;4.350;2022-12-07T07:06:03;4.40;99.90
22491;DHT22;11412;50.802;4.350;2022-12-07T07:08:29;4.40;99.90
22491;DHT22;11412;50.802;4.350;2022-12-07T07:10:54;4.40;99.90
22491;DHT22;11412;50.802;4.350;2022-12-07T07:13:20;4.50;99.90
22491;DHT22;11412;50.802;4.350;2022-12-07T07:15:46;4.40;99.90
22491;DHT22;11412;50.802;4.350;2022-12-07T07:18:11;4.30;99.90
22491;DHT22;11412;50.802;4.350;2022-12-07T07:20:37;4.30;99.90
22491;DHT22;11412;50.802;4.350;2022-12-07T07:23:03;4.30;99.90
22491;DHT22;11412;50.802;4.350;2022-12-07T07:25:29;4.20;99.90
22491;DHT22;11412;50.802;4.350;2022-12-07T07:27:55;4.30;99.90
22491;DHT22;11412;50.802;4.350;2022-12-07T07:30:21;4.40;99.90
22491;DHT22;11412;50.802;4.350;2022-12-07T07:32:46;4.40;99.90
22491;DHT22;11412;50.802;4.350;2022-12-07T07:35:12;4.50;99.90
22491;DHT22;11412;50.802;4.350;2022-12-07T07:37:39;4.60;99.90
22491;DHT22;11412;50.802;4.350;2022-12-07T07:40:06;4.60;99.90
22491;DHT22;11412;50.802;4.350;2022-12-07T07:42:32;4.60;99.90
22491;DHT22;11412;50.802;4.350;2022-12-07T07:44:57;4.60;99.90
22491;DHT22;11412;50.802;4.350;2022-12-07T07:47:23;4.60;99.90
22491;DHT22;11412;50.802;4.350;2022-12-07T07:49:49;4.60;99.90
22491;DHT22;11412;50.802;4.350;2022-12-07T07:52:14;4.70;99.90
22491;DHT22;11412;50.802;4.350;2022-12-07T07:54:40;4.70;99.90
22491;DHT22;11412;50.802;4.350;2022-12-07T07:57:06;4.70;99.90
22491;DHT22;11412;50.802;4.350;2022-12-07T07:59:31;4.80;99.90
22491;DHT22;11412;50.802;4.350;2022-12-07T08:01:57;4.80;99.90
22491;DHT22;11412;50.802;4.350;2022-12-07T08:04:23;5.00;99.90
22491;DHT22;11412;50.802;4.350;2022-12-07T08:06:48;5.20;99.90
22491;DHT22;11412;50.802;4.350;2022-12-07T08:09:14;5.40;99.90
22491;DHT22;11412;50.802;4.350;2022-12-07T08:11:40;5.20;99.90
22491;DHT22;11412;50.802;4.350;2022-12-07T08:14:05;5.10;99.90
22491;DHT22;11412;50.802;4.350;2022-12-07T08:16:31;5.00;99.90
22491;DHT22;11412;50.802;4.350;2022-12-07T08:18:57;4.90;99.90
22491;DHT22;11412;50.802;4.350;2022-12-07T08:21:22;4.90;99.90
22491;DHT22;11412;50.802;4.350;2022-12-07T08:23:48;4.90;99.90
22491;DHT22;11412;50.802;4.350;2022-12-07T08:26:16;4.90;99.90
22491;DHT22;11412;50.802;4.350;2022-12-07T08:28:42;5.00;99.90
22491;DHT22;11412;50.802;4.350;2022-12-07T08:31:15;4.90;99.90
22491;DHT22;11412;50.802;4.350;2022-12-07T08:33:41;4.70;99.90
22491;DHT22;11412;50.802;4.350;2022-12-07T08:36:09;4.70;99.90
22491;DHT22;11412;50.802;4.350;2022-12-07T08:38:36;4.70;99.90
22491;DHT22;11412;50.802;4.350;2022-12-07T08:41:03;4.70;99.90
22491;DHT22;11412;50.802;4.350;2022-12-07T08:43:29;4.70;99.90
22491;DHT22;11412;50.802;4.350;2022-12-07T08:48:34;4.70;99.90
22491;DHT22;11412;50.802;4.350;2022-12-07T08:51:02;4.80;99.90
22491;DHT22;11412;50.802;4.350;2022-12-07T08:53:28;4.90;99.90
22491;DHT22;11412;50.802;4.350;2022-12-07T08:55:55;4.90;99.90
22491;DHT22;11412;50.802;4.350;2022-12-07T08:58:21;5.00;99.90
22491;DHT22;11412;50.802;4.350;2022-12-07T09:00:47;5.20;99.90
22491;DHT22;11412;50.802;4.350;2022-12-07T09:03:13;5.30;99.90
22491;DHT22;11412;50.802;4.350;2022-12-07T09:05:38;5.50;99.90
22491;DHT22;11412;50.802;4.350;2022-12-07T09:08:04;5.60;99.90
22491;DHT22;11412;50.802;4.350;2022-12-07T09:10:30;5.80;99.90
22491;DHT22;11412;50.802;4.350;2022-12-07T09:12:56;5.90;99.90
22491;DHT22;11412;50.802;4.350;2022-12-07T09:15:27;5.90;99.90
22491;DHT22;11412;50.802;4.350;2022-12-07T09:17:53;5.90;99.90
22491;DHT22;11412;50.802;4.350;2022-12-07T09:20:19;6.10;99.90
22491;DHT22;11412;50.802;4.350;2022-12-07T09:22:45;6.10;99.90
22491;DHT22;11412;50.802;4.350;2022-12-07T09:25:10;6.10;99.90
22491;DHT22;11412;50.802;4.350;2022-12-07T09:27:36;6.00;99.90
22491;DHT22;11412;50.802;4.350;2022-12-07T09:30:03;6.00;99.90
22491;DHT22;11412;50.802;4.350;2022-12-07T09:32:29;6.40;99.90
22491;DHT22;11412;50.802;4.350;2022-12-07T09:34:55;6.60;99.90
22491;DHT22;11412;50.802;4.350;2022-12-07T09:37:21;6.80;99.90
22491;DHT22;11412;50.802;4.350;2022-12-07T09:39:47;6.90;99.90
22491;DHT22;11412;50.802;4.350;2022-12-07T09:42:34;6.80;99.90
22491;DHT22;11412;50.802;4.350;2022-12-07T09:45:01;6.70;99.90
22491;DHT22;11412;50.802;4.350;2022-12-07T09:47:28;6.60;99.90
22491;DHT22;11412;50.802;4.350;2022-12-07T09:50:21;6.70;99.90
22491;DHT22;11412;50.802;4.350;2022-12-07T09:52:45;7.00;99.90
22491;DHT22;11412;50.802;4.350;2022-12-07T09:55:15;7.00;99.90
22491;DHT22;11412;50.802;4.350;2022-12-07T09:57:41;6.80;99.90
22491;DHT22;11412;50.802;4.350;2022-12-07T10:00:19;6.80;99.90
22491;DHT22;11412;50.802;4.350;2022-12-07T10:02:57;6.50;99.90
22491;DHT22;11412;50.802;4.350;2022-12-07T10:05:39;6.50;99.90
22491;DHT22;11412;50.802;4.350;2022-12-07T10:08:08;6.40;99.90
22491;DHT22;11412;50.802;4.350;2022-12-07T10:10:35;6.30;99.90
22491;DHT22;11412;50.802;4.350;2022-12-07T10:13:12;6.30;99.90
22491;DHT22;11412;50.802;4.350;2022-12-07T10:15:52;6.40;99.90
22491;DHT22;11412;50.802;4.350;2022-12-07T10:20:48;6.60;99.90
22491;DHT22;11412;50.802;4.350;2022-12-07T10:23:15;6.70;99.90
22491;DHT22;11412;50.802;4.350;2022-12-07T10:25:41;6.70;99.90
22491;DHT22;11412;50.802;4.350;2022-12-07T10:30:47;6.60;99.90
22491;DHT22;11412;50.802;4.350;2022-12-07T10:33:53;6.70;99.90
22491;DHT22;11412;50.802;4.350;2022-12-07T10:36:26;6.80;99.90
22491;DHT22;11412;50.802;4.350;2022-12-07T10:39:20;6.70;99.90
22491;DHT22;11412;50.802;4.350;2022-12-07T10:42:01;6.80;99.90
22491;DHT22;11412;50.802;4.350;2022-12-07T10:44:32;7.10;99.90
22491;DHT22;11412;50.802;4.350;2022-12-07T10:55:16;7.50;99.90
22491;DHT22;11412;50.802;4.350;2022-12-07T11:00:54;7.80;99.90
22491;DHT22;11412;50.802;4.350;2022-12-07T11:03:32;7.70;99.90
22491;DHT22;11412;50.802;4.350;2022-12-07T11:06:25;7.50;99.90
22491;DHT22;11412;50.802;4.350;2022-12-07T11:09:06;7.50;99.90
22491;DHT22;11412;50.802;4.350;2022-12-07T11:11:55;7.40;99.90
22491;DHT22;11412;50.802;4.350;2022-12-07T11:14:31;7.50;99.90
22491;DHT22;11412;50.802;4.350;2022-12-07T11:22:51;7.70;99.90
22491;DHT22;11412;50.802;4.350;2022-12-07T11:25:32;7.70;99.90
22491;DHT22;11412;50.802;4.350;2022-12-07T11:31:01;7.90;99.90
22491;DHT22;11412;50.802;4.350;2022-12-07T11:39:02;7.90;99.90
22491;DHT22;11412;50.802;4.350;2022-12-07T11:41:39;7.80;99.90
22491;DHT22;11412;50.802;4.350;2022-12-07T11:47:06;7.40;99.90
22491;DHT22;11412;50.802;4.350;2022-12-07T11:52:51;7.30;99.90
22491;DHT22;11412;50.802;4.350;2022-12-07T11:55:41;7.10;99.90
22491;DHT22;11412;50.802;4.350;2022-12-07T12:06:29;8.10;99.90
22491;DHT22;11412;50.802;4.350;2022-12-07T12:09:15;8.50;99.90
22491;DHT22;11412;50.802;4.350;2022-12-07T12:20:14;11.60;99.90
22491;DHT22;11412;50.802;4.350;2022-12-07T12:22:46;11.60;99.90
22491;DHT22;11412;50.802;4.350;2022-12-07T12:25:21;11.10;99.90
22491;DHT22;11412;50.802;4.350;2022-12-07T12:27:49;10.30;99.90
22491;DHT22;11412;50.802;4.350;2022-12-07T12:30:35;9.70;99.90
22491;DHT22;11412;50.802;4.350;2022-12-07T12:33:28;9.30;99.90
22491;DHT22;11412;50.802;4.350;2022-12-07T12:47:02;8.30;99.90
22491;DHT22;11412;50.802;4.350;2022-12-07T12:51:59;8.30;99.90
22491;DHT22;11412;50.802;4.350;2022-12-07T12:54:25;8.30;99.90
22491;DHT22;11412;50.802;4.350;2022-12-07T12:57:21;8.00;99.90
22491;DHT22;11412;50.802;4.350;2022-12-07T13:15:56;7.70;99.90
22491;DHT22;11412;50.802;4.350;2022-12-07T13:18:41;7.80;99.90
22491;DHT22;11412;50.802;4.350;2022-12-07T13:36:56;7.60;99.90
22491;DHT22;11412;50.802;4.350;2022-12-07T13:39:26;7.60;99.90
22491;DHT22;11412;50.802;4.350;2022-12-07T13:41:56;7.50;99.90
22491;DHT22;11412;50.802;4.350;2022-12-07T13:44:24;7.40;99.90
22491;DHT22;11412;50.802;4.350;2022-12-07T13:49:52;7.40;99.90
22491;DHT22;11412;50.802;4.350;2022-12-07T13:52:26;7.40;99.90
22491;DHT22;11412;50.802;4.350;2022-12-07T13:57:30;7.50;99.90
22491;DHT22;11412;50.802;4.350;2022-12-07T13:59:58;7.50;99.90
22491;DHT22;11412;50.802;4.350;2022-12-07T14:02:34;7.60;99.90
22491;DHT22;11412;50.802;4.350;2022-12-07T14:05:27;7.50;99.90
22491;DHT22;11412;50.802;4.350;2022-12-07T14:07:57;7.60;99.90
22491;DHT22;11412;50.802;4.350;2022-12-07T14:10:53;7.50;99.90
22491;DHT22;11412;50.802;4.350;2022-12-07T14:13:35;7.60;99.90
22491;DHT22;11412;50.802;4.350;2022-12-07T14:18:50;7.40;99.90
22491;DHT22;11412;50.802;4.350;2022-12-07T14:21:18;7.40;99.90
22491;DHT22;11412;50.802;4.350;2022-12-07T14:23:45;7.40;99.90
22491;DHT22;11412;50.802;4.350;2022-12-07T14:26:16;7.30;99.90
22491;DHT22;11412;50.802;4.350;2022-12-07T14:28:44;7.30;99.90
22491;DHT22;11412;50.802;4.350;2022-12-07T14:31:17;7.20;99.90
22491;DHT22;11412;50.802;4.350;2022-12-07T14:33:43;7.10;99.90
22491;DHT22;11412;50.802;4.350;2022-12-07T14:36:13;7.10;99.90
22491;DHT22;11412;50.802;4.350;2022-12-07T14:38:40;7.10;99.90
22491;DHT22;11412;50.802;4.350;2022-12-07T14:41:12;7.10;99.90
22491;DHT22;11412;50.802;4.350;2022-12-07T14:43:57;7.10;99.90
22491;DHT22;11412;50.802;4.350;2022-12-07T14:46:22;7.10;99.90
22491;DHT22;11412;50.802;4.350;2022-12-07T14:48:48;7.00;99.90
22491;DHT22;11412;50.802;4.350;2022-12-07T14:51:14;6.90;99.90
22491;DHT22;11412;50.802;4.350;2022-12-07T14:53:48;6.80;99.90
22491;DHT22;11412;50.802;4.350;2022-12-07T14:56:13;6.70;99.90
22491;DHT22;11412;50.802;4.350;2022-12-07T14:58:40;6.50;99.90
22491;DHT22;11412;50.802;4.350;2022-12-07T15:01:05;6.40;99.90
22491;DHT22;11412;50.802;4.350;2022-12-07T15:03:31;6.30;99.90
22491;DHT22;11412;50.802;4.350;2022-12-07T15:05:57;6.30;99.90
22491;DHT22;11412;50.802;4.350;2022-12-07T15:08:23;6.30;99.90
22491;DHT22;11412;50.802;4.350;2022-12-07T15:10:48;6.30;99.90
22491;DHT22;11412;50.802;4.350;2022-12-07T15:13:14;6.20;99.90
22491;DHT22;11412;50.802;4.350;2022-12-07T15:15:58;6.20;99.90
22491;DHT22;11412;50.802;4.350;2022-12-07T15:18:24;6.10;99.90
22491;DHT22;11412;50.802;4.350;2022-12-07T15:20:50;6.10;99.90
22491;DHT22;11412;50.802;4.350;2022-12-07T15:23:17;6.10;99.90
22491;DHT22;11412;50.802;4.350;2022-12-07T15:25:47;6.00;99.90
22491;DHT22;11412;50.802;4.350;2022-12-07T15:28:13;6.10;99.90
22491;DHT22;11412;50.802;4.350;2022-12-07T15:30:40;6.00;99.90
22491;DHT22;11412;50.802;4.350;2022-12-07T15:33:08;6.10;99.90
22491;DHT22;11412;50.802;4.350;2022-12-07T15:35:33;6.10;99.90
22491;DHT22;11412;50.802;4.350;2022-12-07T15:37:59;6.10;99.90
22491;DHT22;11412;50.802;4.350;2022-12-07T15:40:24;6.10;99.90
22491;DHT22;11412;50.802;4.350;2022-12-07T15:42:50;6.00;99.90
22491;DHT22;11412;50.802;4.350;2022-12-07T15:45:16;6.10;99.90
22491;DHT22;11412;50.802;4.350;2022-12-07T15:47:43;6.10;99.90
22491;DHT22;11412;50.802;4.350;2022-12-07T15:50:13;6.10;99.90
22491;DHT22;11412;50.802;4.350;2022-12-07T15:52:40;6.10;99.90
22491;DHT22;11412;50.802;4.350;2022-12-07T15:55:06;6.10;99.90
22491;DHT22;11412;50.802;4.350;2022-12-07T15:57:33;6.20;99.90
22491;DHT22;11412;50.802;4.350;2022-12-07T15:59:59;6.20;99.90
22491;DHT22;11412;50.802;4.350;2022-12-07T16:02:24;6.10;99.90
22491;DHT22;11412;50.802;4.350;2022-12-07T16:04:51;6.10;99.90
22491;DHT22;11412;50.802;4.350;2022-12-07T16:07:17;6.10;99.90
22491;DHT22;11412;50.802;4.350;2022-12-07T16:09:44;6.20;99.90
22491;DHT22;11412;50.802;4.350;2022-12-07T16:12:11;6.20;99.90
22491;DHT22;11412;50.802;4.350;2022-12-07T16:14:39;6.20;99.90
22491;DHT22;11412;50.802;4.350;2022-12-07T16:17:06;6.20;99.90
22491;DHT22;11412;50.802;4.350;2022-12-07T16:19:32;6.10;99.90
22491;DHT22;11412;50.802;4.350;2022-12-07T16:21:57;6.10;99.90
22491;DHT22;11412;50.802;4.350;2022-12-07T16:24:24;6.10;99.90
22491;DHT22;11412;50.802;4.350;2022-12-07T16:26:51;6.20;99.90
22491;DHT22;11412;50.802;4.350;2022-12-07T16:29:17;6.00;99.90
22491;DHT22;11412;50.802;4.350;2022-12-07T16:31:43;6.00;99.90
22491;DHT22;11412;50.802;4.350;2022-12-07T16:34:09;6.00;99.90
22491;DHT22;11412;50.802;4.350;2022-12-07T16:36:35;6.10;99.90
22491;DHT22;11412;50.802;4.350;2022-12-07T16:39:01;6.10;99.90
22491;DHT22;11412;50.802;4.350;2022-12-07T16:41:27;6.10;99.90
22491;DHT22;11412;50.802;4.350;2022-12-07T16:43:53;6.20;99.90
22491;DHT22;11412;50.802;4.350;2022-12-07T16:46:18;6.10;99.90
22491;DHT22;11412;50.802;4.350;2022-12-07T16:48:44;6.10;99.90
22491;DHT22;11412;50.802;4.350;2022-12-07T16:51:12;6.00;99.90
22491;DHT22;11412;50.802;4.350;2022-12-07T16:53:39;6.00;99.90
22491;DHT22;11412;50.802;4.350;2022-12-07T16:56:13;6.00;99.90
22491;DHT22;11412;50.802;4.350;2022-12-07T16:58:41;6.00;99.90
22491;DHT22;11412;50.802;4.350;2022-12-07T17:01:16;5.90;99.90
22491;DHT22;11412;50.802;4.350;2022-12-07T17:03:43;6.00;99.90
22491;DHT22;11412;50.802;4.350;2022-12-07T17:06:17;6.00;99.90
22491;DHT22;11412;50.802;4.350;2022-12-07T17:08:43;6.00;99.90
22491;DHT22;11412;50.802;4.350;2022-12-07T17:11:11;6.00;99.90
22491;DHT22;11412;50.802;4.350;2022-12-07T17:13:36;5.90;99.90
22491;DHT22;11412;50.802;4.350;2022-12-07T17:16:21;6.00;99.90
22491;DHT22;11412;50.802;4.350;2022-12-07T17:18:46;6.00;99.90
22491;DHT22;11412;50.802;4.350;2022-12-07T17:21:12;6.00;99.90
22491;DHT22;11412;50.802;4.350;2022-12-07T17:23:37;6.00;99.90
22491;DHT22;11412;50.802;4.350;2022-12-07T17:26:14;6.00;99.90
22491;DHT22;11412;50.802;4.350;2022-12-07T17:28:41;6.00;99.90
22491;DHT22;11412;50.802;4.350;2022-12-07T17:31:09;6.00;99.90
22491;DHT22;11412;50.802;4.350;2022-12-07T17:33:35;5.90;99.90
22491;DHT22;11412;50.802;4.350;2022-12-07T17:36:01;6.00;99.90
22491;DHT22;11412;50.802;4.350;2022-12-07T17:38:34;6.10;99.90
22491;DHT22;11412;50.802;4.350;2022-12-07T17:40:59;5.90;99.90
22491;DHT22;11412;50.802;4.350;2022-12-07T17:43:25;6.00;99.90
22491;DHT22;11412;50.802;4.350;2022-12-07T17:45:50;6.00;99.90
22491;DHT22;11412;50.802;4.350;2022-12-07T17:48:16;6.00;99.90
22491;DHT22;11412;50.802;4.350;2022-12-07T17:50:42;6.00;99.90
22491;DHT22;11412;50.802;4.350;2022-12-07T17:53:26;6.00;99.90
22491;DHT22;11412;50.802;4.350;2022-12-07T17:55:55;6.00;99.90
22491;DHT22;11412;50.802;4.350;2022-12-07T17:58:20;6.10;99.90
22491;DHT22;11412;50.802;4.350;2022-12-07T18:00:46;6.10;99.90
22491;DHT22;11412;50.802;4.350;2022-12-07T18:03:12;6.10;99.90
22491;DHT22;11412;50.802;4.350;2022-12-07T18:05:37;6.10;99.90
22491;DHT22;11412;50.802;4.350;2022-12-07T18:08:04;6.20;99.90
22491;DHT22;11412;50.802;4.350;2022-12-07T18:10:30;6.20;99.90
22491;DHT22;11412;50.802;4.350;2022-12-07T18:12:56;6.10;99.90
22491;DHT22;11412;50.802;4.350;2022-12-07T18:15:42;6.40;99.90
22491;DHT22;11412;50.802;4.350;2022-12-07T18:18:08;6.60;99.90